2001 0720002001 (2001031S13072)


On this page: IBTrACS data - Map and Plots - Positions - Intensities - Original source data

Summary

Start Jan 30
End Feb 6
Basin SI
LMI 45 kt
Source reunion
In WMO? Yes
Previous storm 2001 TERRI (SI)
Previous in basin 2001 TERRI (SI)
Concurrent storms 2001 CHARLY (SI)
2001 TERRI (SI)
2001 0720002001 (SI)
Next in basin 2001 WINSOME (SP)
Next storm 2001 WINSOME (SP)

top of page IBTrACS Data: File Access

top of page HURSAT Data: File Access

Image of storm

top of page Plots:

Map of storm track will not appear if FTP is down
Time series of cyclone Maximum Sustained Wind will not appear if FTP is down
Time series of cyclone Minimum Central Pressure will not appear if FTP is down

top of page Track Data:Position

reunion
Date Lat Lon
2001-01-30 12:00:00 -13.1 71.5
2001-01-30 18:00:00 -13.4 71.4
2001-01-31 00:00:00 -13.7 71.2
2001-01-31 06:00:00 -14.1 71.0
2001-01-31 12:00:00 -14.9 70.3
2001-01-31 18:00:00 -15.4 70.0
2001-02-01 00:00:00 -15.7 69.7
2001-02-01 06:00:00 -16.1 69.5
2001-02-01 12:00:00 -16.8 69.1
2001-02-01 18:00:00 -18.3 68.9
2001-02-02 00:00:00 -20.1 68.4
2001-02-02 06:00:00 -21.2 68.0
2001-02-02 12:00:00 -22.6 67.5
2001-02-02 18:00:00 -23.9 67.5
2001-02-03 00:00:00 -25.4 67.8
2001-02-03 06:00:00 -27.1 68.6
2001-02-03 12:00:00 -28.9 69.6
2001-02-03 18:00:00 -30.4 70.1
2001-02-04 00:00:00 -30.6 69.8
2001-02-04 06:00:00 -30.8 69.4
2001-02-04 12:00:00 -31.2 69.1
2001-02-04 18:00:00 -31.7 69.0
2001-02-05 00:00:00 -32.2 68.9
2001-02-05 06:00:00 -33.1 68.9
2001-02-05 12:00:00 -34.0 69.8
reunion
2001-02-05 18:00:00 -35.0 70.8
2001-02-06 00:00:00 -35.9 71.7
2001-02-06 06:00:00 -36.6 72.3
2001-02-06 12:00:00 -37.3 73.1

top of pageTrack Data:Intensity

reunion
Date Wind Pres
2001-01-30 12:00:00 25. 1000.
2001-01-30 18:00:00 25. 1000.
2001-01-31 00:00:00 25. 1000.
2001-01-31 06:00:00 25. 999.
2001-01-31 12:00:00 25. 998.
2001-01-31 18:00:00 25. 997.
2001-02-01 00:00:00 25. 997.
2001-02-01 06:00:00 30. 996.
2001-02-01 12:00:00 30. 996.
2001-02-01 18:00:00 30. 996.
2001-02-02 00:00:00 30. 996.
2001-02-02 06:00:00 30. 996.
2001-02-02 12:00:00 30. 996.
2001-02-02 18:00:00 30. 995.
2001-02-03 00:00:00 30. 995.
2001-02-03 06:00:00 35. 992.
2001-02-03 12:00:00 35. 990.
2001-02-03 18:00:00 40. 987.
2001-02-04 00:00:00 45. 985.
2001-02-04 06:00:00 45. 985.
2001-02-04 12:00:00 40. 987.
2001-02-04 18:00:00 40. 988.
2001-02-05 00:00:00 35. 990.
2001-02-05 06:00:00 35. 992.
2001-02-05 12:00:00 30. 995.
reunion
2001-02-05 18:00:00 30. 996.
2001-02-06 00:00:00 30. 998.
2001-02-06 06:00:00 30. 998.
2001-02-06 12:00:00 30. 998.

top of page Links to source data

Source Source file Format
reunion WMO-Best-Tracks.txt:Line=19191:0720002001 WMO (old format)